sensor_id;sensor_type;location;lat;lon;timestamp;pressure;altitude;pressure_sealevel;temperature;humidity
6615;BME280;3343;42.896;23.912;2022-08-05T00:00:07;96581.47;;;25.95;49.75
6615;BME280;3343;42.896;23.912;2022-08-05T00:02:34;96573.47;;;25.51;50.67
6615;BME280;3343;42.896;23.912;2022-08-05T00:05:03;96580.78;;;25.06;52.50
6615;BME280;3343;42.896;23.912;2022-08-05T00:07:31;96574.88;;;25.44;51.65
6615;BME280;3343;42.896;23.912;2022-08-05T00:09:57;96576.28;;;25.75;50.09
6615;BME280;3343;42.896;23.912;2022-08-05T00:12:24;96570.94;;;25.65;51.03
6615;BME280;3343;42.896;23.912;2022-08-05T00:14:51;96571.22;;;25.63;51.06
6615;BME280;3343;42.896;23.912;2022-08-05T00:17:18;96573.81;;;25.79;50.52
6615;BME280;3343;42.896;23.912;2022-08-05T00:19:45;96571.88;;;25.84;50.04
6615;BME280;3343;42.896;23.912;2022-08-05T00:22:12;96568.75;;;25.72;50.37
6615;BME280;3343;42.896;23.912;2022-08-05T00:24:40;96569.81;;;26.05;49.12
6615;BME280;3343;42.896;23.912;2022-08-05T00:27:07;96564.06;;;25.49;50.30
6615;BME280;3343;42.896;23.912;2022-08-05T00:29:34;96567.25;;;25.56;50.56
6615;BME280;3343;42.896;23.912;2022-08-05T00:32:01;96558.97;;;25.47;51.17
6615;BME280;3343;42.896;23.912;2022-08-05T00:34:28;96565.41;;;25.51;50.97
6615;BME280;3343;42.896;23.912;2022-08-05T00:36:55;96548.91;;;25.58;50.95
6615;BME280;3343;42.896;23.912;2022-08-05T00:39:22;96557.97;;;25.38;50.75
6615;BME280;3343;42.896;23.912;2022-08-05T00:41:50;96556.63;;;25.35;51.69
6615;BME280;3343;42.896;23.912;2022-08-05T00:44:17;96556.25;;;25.08;52.51
6615;BME280;3343;42.896;23.912;2022-08-05T00:46:44;96553.06;;;25.45;51.57
6615;BME280;3343;42.896;23.912;2022-08-05T00:49:11;96553.97;;;25.64;50.37
6615;BME280;3343;42.896;23.912;2022-08-05T00:51:38;96554.28;;;25.58;50.62
6615;BME280;3343;42.896;23.912;2022-08-05T00:54:05;96548.31;;;25.66;50.40
6615;BME280;3343;42.896;23.912;2022-08-05T00:56:32;96550.13;;;25.76;49.76
6615;BME280;3343;42.896;23.912;2022-08-05T00:59:00;96554.47;;;25.71;50.40
6615;BME280;3343;42.896;23.912;2022-08-05T01:01:27;96556.28;;;25.47;50.85
6615;BME280;3343;42.896;23.912;2022-08-05T01:03:54;96545.66;;;25.27;51.81
6615;BME280;3343;42.896;23.912;2022-08-05T01:06:21;96531.78;;;25.04;52.17
6615;BME280;3343;42.896;23.912;2022-08-05T01:08:48;96543.88;;;25.07;52.64
6615;BME280;3343;42.896;23.912;2022-08-05T01:11:17;96551.41;;;25.49;51.21
6615;BME280;3343;42.896;23.912;2022-08-05T01:13:54;96549.66;;;25.63;50.87
6615;BME280;3343;42.896;23.912;2022-08-05T01:16:28;96550.81;;;25.86;49.92
6615;BME280;3343;42.896;23.912;2022-08-05T01:19:08;96546.00;;;25.83;50.02
6615;BME280;3343;42.896;23.912;2022-08-05T01:21:51;96545.84;;;25.98;48.98
6615;BME280;3343;42.896;23.912;2022-08-05T01:24:35;96546.91;;;26.02;49.08
6615;BME280;3343;42.896;23.912;2022-08-05T01:27:12;96552.19;;;25.84;49.35
6615;BME280;3343;42.896;23.912;2022-08-05T01:29:46;96552.00;;;25.75;49.74
6615;BME280;3343;42.896;23.912;2022-08-05T01:32:17;96544.56;;;25.62;49.96
6615;BME280;3343;42.896;23.912;2022-08-05T01:34:48;96543.97;;;25.36;50.83
6615;BME280;3343;42.896;23.912;2022-08-05T01:37:18;96553.84;;;25.46;50.61
6615;BME280;3343;42.896;23.912;2022-08-05T01:39:49;96549.84;;;25.43;50.98
6615;BME280;3343;42.896;23.912;2022-08-05T01:42:19;96552.44;;;25.53;50.62
6615;BME280;3343;42.896;23.912;2022-08-05T01:44:50;96546.84;;;25.45;50.75
6615;BME280;3343;42.896;23.912;2022-08-05T01:47:19;96547.13;;;25.43;50.57
6615;BME280;3343;42.896;23.912;2022-08-05T01:49:49;96554.22;;;25.34;50.98
6615;BME280;3343;42.896;23.912;2022-08-05T01:52:18;96537.94;;;25.15;51.73
6615;BME280;3343;42.896;23.912;2022-08-05T01:54:48;96554.75;;;25.36;51.34
6615;BME280;3343;42.896;23.912;2022-08-05T01:57:19;96552.94;;;25.26;51.46
6615;BME280;3343;42.896;23.912;2022-08-05T01:59:51;96554.00;;;25.59;50.32
6615;BME280;3343;42.896;23.912;2022-08-05T02:02:20;96557.28;;;25.56;49.94
6615;BME280;3343;42.896;23.912;2022-08-05T02:04:49;96557.34;;;25.46;50.65
6615;BME280;3343;42.896;23.912;2022-08-05T02:07:18;96529.50;;;24.77;52.27
6615;BME280;3343;42.896;23.912;2022-08-05T02:09:45;96550.63;;;25.04;52.26
6615;BME280;3343;42.896;23.912;2022-08-05T02:12:17;96552.31;;;24.85;52.86
6615;BME280;3343;42.896;23.912;2022-08-05T02:14:48;96546.31;;;24.49;54.25
6615;BME280;3343;42.896;23.912;2022-08-05T02:17:22;96543.59;;;24.59;54.39
6615;BME280;3343;42.896;23.912;2022-08-05T02:19:55;96537.00;;;24.81;53.49
6615;BME280;3343;42.896;23.912;2022-08-05T02:22:27;96541.22;;;24.48;54.95
6615;BME280;3343;42.896;23.912;2022-08-05T02:25:00;96540.88;;;24.59;54.30
6615;BME280;3343;42.896;23.912;2022-08-05T02:27:29;96544.88;;;24.72;53.70
6615;BME280;3343;42.896;23.912;2022-08-05T02:30:00;96540.44;;;24.91;52.91
6615;BME280;3343;42.896;23.912;2022-08-05T02:32:30;96539.53;;;25.16;52.38
6615;BME280;3343;42.896;23.912;2022-08-05T02:35:01;96536.28;;;25.14;52.03
6615;BME280;3343;42.896;23.912;2022-08-05T02:37:29;96540.75;;;25.34;51.41
6615;BME280;3343;42.896;23.912;2022-08-05T02:40:00;96537.94;;;25.15;51.98
6615;BME280;3343;42.896;23.912;2022-08-05T02:42:28;96537.81;;;25.30;51.45
6615;BME280;3343;42.896;23.912;2022-08-05T02:44:56;96541.03;;;25.32;50.96
6615;BME280;3343;42.896;23.912;2022-08-05T02:47:24;96543.78;;;25.22;51.23
6615;BME280;3343;42.896;23.912;2022-08-05T02:49:54;96545.03;;;25.35;51.19
6615;BME280;3343;42.896;23.912;2022-08-05T02:52:21;96540.88;;;25.19;51.09
6615;BME280;3343;42.896;23.912;2022-08-05T02:54:50;96552.19;;;25.16;51.12
6615;BME280;3343;42.896;23.912;2022-08-05T02:57:19;96542.22;;;25.16;51.53
6615;BME280;3343;42.896;23.912;2022-08-05T02:59:49;96544.56;;;24.78;52.83
6615;BME280;3343;42.896;23.912;2022-08-05T03:02:20;96542.81;;;25.03;52.03
6615;BME280;3343;42.896;23.912;2022-08-05T03:04:49;96541.22;;;24.97;52.62
6615;BME280;3343;42.896;23.912;2022-08-05T03:07:18;96549.09;;;24.83;53.04
6615;BME280;3343;42.896;23.912;2022-08-05T03:09:46;96544.88;;;24.67;53.82
6615;BME280;3343;42.896;23.912;2022-08-05T03:12:28;96543.97;;;24.87;52.63
6615;BME280;3343;42.896;23.912;2022-08-05T03:14:55;96552.84;;;24.87;52.44
6615;BME280;3343;42.896;23.912;2022-08-05T03:17:22;96549.44;;;24.71;53.10
6615;BME280;3343;42.896;23.912;2022-08-05T03:19:49;96558.97;;;24.43;53.87
6615;BME280;3343;42.896;23.912;2022-08-05T03:22:15;96557.59;;;24.51;53.77
6615;BME280;3343;42.896;23.912;2022-08-05T03:24:45;96558.13;;;24.53;53.63
6615;BME280;3343;42.896;23.912;2022-08-05T03:27:13;96554.00;;;23.81;56.94
6615;BME280;3343;42.896;23.912;2022-08-05T03:29:40;96557.78;;;23.60;57.62
6615;BME280;3343;42.896;23.912;2022-08-05T03:32:08;96558.25;;;24.02;56.45
6615;BME280;3343;42.896;23.912;2022-08-05T03:34:35;96549.56;;;24.46;55.21
6615;BME280;3343;42.896;23.912;2022-08-05T03:37:04;96554.03;;;24.66;54.43
6615;BME280;3343;42.896;23.912;2022-08-05T03:39:31;96538.44;;;24.68;54.07
6615;BME280;3343;42.896;23.912;2022-08-05T03:41:59;96551.78;;;24.88;53.45
6615;BME280;3343;42.896;23.912;2022-08-05T03:44:26;96557.53;;;24.66;54.11
6615;BME280;3343;42.896;23.912;2022-08-05T03:46:53;96557.25;;;24.68;53.45
6615;BME280;3343;42.896;23.912;2022-08-05T03:49:20;96560.28;;;24.56;54.63
6615;BME280;3343;42.896;23.912;2022-08-05T03:51:52;96560.22;;;24.71;54.37
6615;BME280;3343;42.896;23.912;2022-08-05T03:54:24;96559.63;;;24.80;54.38
6615;BME280;3343;42.896;23.912;2022-08-05T03:56:55;96558.19;;;25.02;53.91
6615;BME280;3343;42.896;23.912;2022-08-05T03:59:29;96561.47;;;25.38;52.55
6615;BME280;3343;42.896;23.912;2022-08-05T04:01:57;96559.91;;;25.66;51.37
6615;BME280;3343;42.896;23.912;2022-08-05T04:04:28;96560.06;;;24.97;53.24
6615;BME280;3343;42.896;23.912;2022-08-05T04:06:58;96561.31;;;24.65;55.37
6615;BME280;3343;42.896;23.912;2022-08-05T04:09:26;96569.19;;;24.52;55.57
6615;BME280;3343;42.896;23.912;2022-08-05T04:11:54;96560.19;;;24.76;55.11
6615;BME280;3343;42.896;23.912;2022-08-05T04:14:21;96566.84;;;25.38;53.65
6615;BME280;3343;42.896;23.912;2022-08-05T04:16:50;96569.59;;;26.25;51.44
6615;BME280;3343;42.896;23.912;2022-08-05T04:19:17;96575.66;;;26.41;50.08
6615;BME280;3343;42.896;23.912;2022-08-05T04:21:44;96570.94;;;26.52;49.99
6615;BME280;3343;42.896;23.912;2022-08-05T04:24:11;96571.22;;;26.98;48.54
6615;BME280;3343;42.896;23.912;2022-08-05T04:26:38;96573.25;;;26.82;48.12
6615;BME280;3343;42.896;23.912;2022-08-05T04:29:05;96578.22;;;26.75;48.53
6615;BME280;3343;42.896;23.912;2022-08-05T04:31:32;96572.94;;;26.89;47.41
6615;BME280;3343;42.896;23.912;2022-08-05T04:34:00;96574.13;;;27.20;46.83
6615;BME280;3343;42.896;23.912;2022-08-05T04:36:27;96572.38;;;27.29;47.33
6615;BME280;3343;42.896;23.912;2022-08-05T04:38:54;96573.63;;;27.18;46.41
6615;BME280;3343;42.896;23.912;2022-08-05T04:41:22;96575.81;;;27.16;46.71
6615;BME280;3343;42.896;23.912;2022-08-05T04:43:49;96554.03;;;27.26;46.63
6615;BME280;3343;42.896;23.912;2022-08-05T04:46:15;96576.44;;;27.46;45.04
6615;BME280;3343;42.896;23.912;2022-08-05T04:48:42;96577.31;;;27.60;45.92
6615;BME280;3343;42.896;23.912;2022-08-05T04:51:10;96574.63;;;27.79;45.23
6615;BME280;3343;42.896;23.912;2022-08-05T04:53:38;96573.16;;;28.00;44.45
6615;BME280;3343;42.896;23.912;2022-08-05T04:56:05;96570.47;;;28.14;42.92
6615;BME280;3343;42.896;23.912;2022-08-05T04:58:33;96549.78;;;27.90;44.14
6615;BME280;3343;42.896;23.912;2022-08-05T05:01:00;96561.25;;;28.15;43.40
6615;BME280;3343;42.896;23.912;2022-08-05T05:03:26;96566.00;;;28.37;43.78
6615;BME280;3343;42.896;23.912;2022-08-05T05:05:53;96553.66;;;28.58;43.62
6615;BME280;3343;42.896;23.912;2022-08-05T05:08:21;96551.03;;;29.08;42.08
6615;BME280;3343;42.896;23.912;2022-08-05T05:10:48;96549.84;;;29.00;41.97
6615;BME280;3343;42.896;23.912;2022-08-05T05:13:16;96556.81;;;29.15;40.24
6615;BME280;3343;42.896;23.912;2022-08-05T05:15:44;96556.72;;;29.42;41.76
6615;BME280;3343;42.896;23.912;2022-08-05T05:18:12;96559.47;;;29.65;40.10
6615;BME280;3343;42.896;23.912;2022-08-05T05:20:41;96552.97;;;30.28;39.11
6615;BME280;3343;42.896;23.912;2022-08-05T05:23:08;96555.06;;;30.62;36.82
6615;BME280;3343;42.896;23.912;2022-08-05T05:25:38;96559.28;;;31.02;37.31
6615;BME280;3343;42.896;23.912;2022-08-05T05:28:06;96561.13;;;31.24;35.87
6615;BME280;3343;42.896;23.912;2022-08-05T05:30:33;96556.00;;;31.31;36.08
6615;BME280;3343;42.896;23.912;2022-08-05T05:33:02;96544.31;;;31.48;36.27
6615;BME280;3343;42.896;23.912;2022-08-05T05:35:29;96551.03;;;31.77;35.62
6615;BME280;3343;42.896;23.912;2022-08-05T05:37:56;96558.66;;;32.09;35.05
6615;BME280;3343;42.896;23.912;2022-08-05T05:40:25;96556.97;;;32.34;34.26
6615;BME280;3343;42.896;23.912;2022-08-05T05:42:53;96561.47;;;32.68;35.13
6615;BME280;3343;42.896;23.912;2022-08-05T05:45:21;96565.03;;;32.89;34.15
6615;BME280;3343;42.896;23.912;2022-08-05T05:47:48;96556.84;;;32.98;34.46
6615;BME280;3343;42.896;23.912;2022-08-05T05:50:16;96568.19;;;33.30;34.54
6615;BME280;3343;42.896;23.912;2022-08-05T05:52:43;96555.00;;;33.52;32.70
6615;BME280;3343;42.896;23.912;2022-08-05T05:55:12;96571.16;;;33.58;32.23
6615;BME280;3343;42.896;23.912;2022-08-05T05:57:40;96550.06;;;33.79;32.28
6615;BME280;3343;42.896;23.912;2022-08-05T06:00:11;96566.53;;;34.36;32.27
6615;BME280;3343;42.896;23.912;2022-08-05T06:02:39;96567.91;;;34.55;32.32
6615;BME280;3343;42.896;23.912;2022-08-05T06:05:07;96569.50;;;34.56;31.25
6615;BME280;3343;42.896;23.912;2022-08-05T06:07:34;96562.00;;;34.40;30.80
6615;BME280;3343;42.896;23.912;2022-08-05T06:10:01;96574.28;;;34.59;31.27
6615;BME280;3343;42.896;23.912;2022-08-05T06:12:28;96574.88;;;34.76;31.71
6615;BME280;3343;42.896;23.912;2022-08-05T06:14:55;96580.91;;;35.06;31.52
6615;BME280;3343;42.896;23.912;2022-08-05T06:17:23;96576.34;;;35.10;30.85
6615;BME280;3343;42.896;23.912;2022-08-05T06:19:49;96578.97;;;35.07;29.47
6615;BME280;3343;42.896;23.912;2022-08-05T06:22:22;96575.44;;;35.06;28.80
6615;BME280;3343;42.896;23.912;2022-08-05T06:24:50;96589.66;;;35.24;29.33
6615;BME280;3343;42.896;23.912;2022-08-05T06:27:17;96580.47;;;35.04;28.28
6615;BME280;3343;42.896;23.912;2022-08-05T06:29:44;96579.88;;;35.11;30.03
6615;BME280;3343;42.896;23.912;2022-08-05T06:32:12;96578.47;;;35.41;29.61
6615;BME280;3343;42.896;23.912;2022-08-05T06:34:41;96577.06;;;35.48;28.86
6615;BME280;3343;42.896;23.912;2022-08-05T06:37:08;96579.78;;;35.60;28.78
6615;BME280;3343;42.896;23.912;2022-08-05T06:39:35;96573.91;;;35.73;28.22
6615;BME280;3343;42.896;23.912;2022-08-05T06:42:04;96575.00;;;35.04;28.28
6615;BME280;3343;42.896;23.912;2022-08-05T06:44:31;96584.41;;;35.31;29.16
6615;BME280;3343;42.896;23.912;2022-08-05T06:46:58;96577.56;;;35.78;27.60
6615;BME280;3343;42.896;23.912;2022-08-05T06:49:25;96575.91;;;34.96;29.28
6615;BME280;3343;42.896;23.912;2022-08-05T06:51:53;96572.94;;;35.66;28.69
6615;BME280;3343;42.896;23.912;2022-08-05T06:54:20;96574.81;;;35.78;27.80
6615;BME280;3343;42.896;23.912;2022-08-05T06:56:46;96568.66;;;36.40;26.62
6615;BME280;3343;42.896;23.912;2022-08-05T06:59:13;96576.81;;;36.36;27.46
6615;BME280;3343;42.896;23.912;2022-08-05T07:01:40;96569.69;;;35.76;27.56
6615;BME280;3343;42.896;23.912;2022-08-05T07:04:07;96563.72;;;36.30;27.60
6615;BME280;3343;42.896;23.912;2022-08-05T07:06:34;96571.59;;;36.63;28.38
6615;BME280;3343;42.896;23.912;2022-08-05T07:09:03;96575.59;;;36.81;27.24
6615;BME280;3343;42.896;23.912;2022-08-05T07:11:30;96584.66;;;36.38;27.22
6615;BME280;3343;42.896;23.912;2022-08-05T07:13:57;96575.84;;;36.60;27.17
6615;BME280;3343;42.896;23.912;2022-08-05T07:16:41;96577.69;;;36.88;26.39
6615;BME280;3343;42.896;23.912;2022-08-05T07:19:24;96570.53;;;37.53;26.59
6615;BME280;3343;42.896;23.912;2022-08-05T07:21:52;96565.75;;;37.89;25.58
6615;BME280;3343;42.896;23.912;2022-08-05T07:24:20;96572.44;;;38.11;25.59
6615;BME280;3343;42.896;23.912;2022-08-05T07:26:47;96572.09;;;38.32;25.34
6615;BME280;3343;42.896;23.912;2022-08-05T07:29:14;96569.31;;;38.54;24.38
6615;BME280;3343;42.896;23.912;2022-08-05T07:31:42;96567.94;;;38.64;24.89
6615;BME280;3343;42.896;23.912;2022-08-05T07:34:09;96571.44;;;38.87;24.22
6615;BME280;3343;42.896;23.912;2022-08-05T07:36:36;96577.53;;;39.27;23.80
6615;BME280;3343;42.896;23.912;2022-08-05T07:39:05;96579.25;;;39.38;22.49
6615;BME280;3343;42.896;23.912;2022-08-05T07:41:34;96572.97;;;39.38;23.12
6615;BME280;3343;42.896;23.912;2022-08-05T07:44:02;96572.75;;;38.71;24.60
6615;BME280;3343;42.896;23.912;2022-08-05T07:46:30;96575.34;;;38.86;24.14
6615;BME280;3343;42.896;23.912;2022-08-05T07:49:00;96573.72;;;39.35;22.17
6615;BME280;3343;42.896;23.912;2022-08-05T07:51:27;96554.56;;;39.75;22.51
6615;BME280;3343;42.896;23.912;2022-08-05T07:53:54;96572.06;;;40.27;21.57
6615;BME280;3343;42.896;23.912;2022-08-05T07:56:21;96578.16;;;40.43;21.91
6615;BME280;3343;42.896;23.912;2022-08-05T07:58:49;96579.69;;;40.82;21.97
6615;BME280;3343;42.896;23.912;2022-08-05T08:01:16;96579.41;;;40.53;20.70
6615;BME280;3343;42.896;23.912;2022-08-05T08:03:43;96576.50;;;39.98;21.77
6615;BME280;3343;42.896;23.912;2022-08-05T08:06:10;96582.53;;;39.17;23.07
6615;BME280;3343;42.896;23.912;2022-08-05T08:08:37;96568.84;;;39.51;22.27
6615;BME280;3343;42.896;23.912;2022-08-05T08:11:04;96575.25;;;39.62;21.39
6615;BME280;3343;42.896;23.912;2022-08-05T08:13:31;96550.06;;;39.60;21.89
6615;BME280;3343;42.896;23.912;2022-08-05T08:16:00;96567.25;;;39.50;22.08
6615;BME280;3343;42.896;23.912;2022-08-05T08:18:27;96568.13;;;39.58;21.96
6615;BME280;3343;42.896;23.912;2022-08-05T08:20:53;96570.00;;;39.50;22.46
6615;BME280;3343;42.896;23.912;2022-08-05T08:23:20;96568.78;;;39.81;21.34
6615;BME280;3343;42.896;23.912;2022-08-05T08:25:47;96567.19;;;39.16;21.56
6615;BME280;3343;42.896;23.912;2022-08-05T08:28:14;96560.88;;;39.16;22.55
6615;BME280;3343;42.896;23.912;2022-08-05T08:30:41;96566.00;;;39.47;22.73
6615;BME280;3343;42.896;23.912;2022-08-05T08:33:09;96562.16;;;39.52;21.60
6615;BME280;3343;42.896;23.912;2022-08-05T08:35:37;96563.66;;;40.13;21.56
6615;BME280;3343;42.896;23.912;2022-08-05T08:38:04;96557.31;;;40.09;21.55
6615;BME280;3343;42.896;23.912;2022-08-05T08:40:32;96563.13;;;40.37;20.94
6615;BME280;3343;42.896;23.912;2022-08-05T08:43:00;96560.19;;;40.67;20.69
6615;BME280;3343;42.896;23.912;2022-08-05T08:45:29;96557.31;;;40.97;20.39
6615;BME280;3343;42.896;23.912;2022-08-05T08:47:57;96555.28;;;40.87;20.44
6615;BME280;3343;42.896;23.912;2022-08-05T08:50:29;96549.19;;;41.22;20.19
6615;BME280;3343;42.896;23.912;2022-08-05T08:53:01;96548.22;;;39.71;20.73
6615;BME280;3343;42.896;23.912;2022-08-05T08:55:29;96544.66;;;39.07;21.57
6615;BME280;3343;42.896;23.912;2022-08-05T08:57:57;96550.88;;;38.13;21.98
6615;BME280;3343;42.896;23.912;2022-08-05T09:00:25;96542.88;;;37.81;22.55
6615;BME280;3343;42.896;23.912;2022-08-05T09:02:52;96540.28;;;37.69;22.50
6615;BME280;3343;42.896;23.912;2022-08-05T09:05:20;96537.13;;;38.55;22.33
6615;BME280;3343;42.896;23.912;2022-08-05T09:07:49;96534.13;;;38.90;21.81
6615;BME280;3343;42.896;23.912;2022-08-05T09:10:17;96542.28;;;38.83;22.04
6615;BME280;3343;42.896;23.912;2022-08-05T09:12:44;96523.22;;;39.24;22.43
6615;BME280;3343;42.896;23.912;2022-08-05T09:15:11;96524.53;;;39.97;21.29
6615;BME280;3343;42.896;23.912;2022-08-05T09:17:39;96523.97;;;39.88;22.35
6615;BME280;3343;42.896;23.912;2022-08-05T09:20:07;96530.28;;;39.51;21.88
6615;BME280;3343;42.896;23.912;2022-08-05T09:23:03;96521.91;;;40.59;21.02
6615;BME280;3343;42.896;23.912;2022-08-05T09:25:31;96525.28;;;40.82;20.94
6615;BME280;3343;42.896;23.912;2022-08-05T09:28:08;96528.09;;;41.62;19.94
6615;BME280;3343;42.896;23.912;2022-08-05T09:30:35;96524.47;;;41.58;19.60
6615;BME280;3343;42.896;23.912;2022-08-05T09:33:03;96525.22;;;41.48;20.06
6615;BME280;3343;42.896;23.912;2022-08-05T09:35:30;96522.22;;;41.88;19.49
6615;BME280;3343;42.896;23.912;2022-08-05T09:37:57;96511.63;;;42.26;19.67
6615;BME280;3343;42.896;23.912;2022-08-05T09:40:34;96508.03;;;41.97;19.33
6615;BME280;3343;42.896;23.912;2022-08-05T09:43:03;96505.34;;;40.11;20.16
6615;BME280;3343;42.896;23.912;2022-08-05T09:45:36;96509.69;;;40.60;20.24
6615;BME280;3343;42.896;23.912;2022-08-05T09:48:23;96501.38;;;39.71;20.73
6615;BME280;3343;42.896;23.912;2022-08-05T09:50:53;96493.84;;;38.26;21.79
6615;BME280;3343;42.896;23.912;2022-08-05T09:53:21;96502.75;;;38.19;23.08
6615;BME280;3343;42.896;23.912;2022-08-05T09:55:55;96495.28;;;38.42;22.91
6615;BME280;3343;42.896;23.912;2022-08-05T09:58:22;96503.63;;;38.49;23.04
6615;BME280;3343;42.896;23.912;2022-08-05T10:00:54;96501.22;;;38.71;22.05
6615;BME280;3343;42.896;23.912;2022-08-05T10:03:22;96491.44;;;38.73;23.22
6615;BME280;3343;42.896;23.912;2022-08-05T10:06:06;96494.03;;;39.15;22.15
6615;BME280;3343;42.896;23.912;2022-08-05T10:08:35;96491.50;;;38.77;22.53
6615;BME280;3343;42.896;23.912;2022-08-05T10:11:05;96483.97;;;39.30;22.50
6615;BME280;3343;42.896;23.912;2022-08-05T10:13:39;96490.91;;;39.17;21.83
6615;BME280;3343;42.896;23.912;2022-08-05T10:18:50;96480.69;;;39.88;21.16
6615;BME280;3343;42.896;23.912;2022-08-05T10:21:17;96479.19;;;39.24;22.28
6615;BME280;3343;42.896;23.912;2022-08-05T10:23:46;96479.41;;;39.78;21.21
6615;BME280;3343;42.896;23.912;2022-08-05T10:26:14;96480.31;;;39.19;21.97
6615;BME280;3343;42.896;23.912;2022-08-05T10:28:42;96476.25;;;38.83;22.44
6615;BME280;3343;42.896;23.912;2022-08-05T10:31:11;96474.66;;;39.08;21.99
6615;BME280;3343;42.896;23.912;2022-08-05T10:33:38;96481.88;;;39.20;22.10
6615;BME280;3343;42.896;23.912;2022-08-05T10:36:05;96476.91;;;40.00;21.69
6615;BME280;3343;42.896;23.912;2022-08-05T10:38:34;96472.22;;;40.04;21.16
6615;BME280;3343;42.896;23.912;2022-08-05T10:41:07;96468.94;;;40.35;21.05
6615;BME280;3343;42.896;23.912;2022-08-05T10:43:46;96470.25;;;40.04;21.15
6615;BME280;3343;42.896;23.912;2022-08-05T10:46:16;96471.25;;;40.30;20.59
6615;BME280;3343;42.896;23.912;2022-08-05T10:48:45;96479.75;;;39.40;21.14
6615;BME280;3343;42.896;23.912;2022-08-05T10:51:14;96470.50;;;39.22;21.77
6615;BME280;3343;42.896;23.912;2022-08-05T10:53:43;96460.13;;;39.08;21.70
6615;BME280;3343;42.896;23.912;2022-08-05T10:56:12;96460.06;;;38.78;21.43
6615;BME280;3343;42.896;23.912;2022-08-05T10:59:01;96456.44;;;38.70;22.27
6615;BME280;3343;42.896;23.912;2022-08-05T11:01:34;96444.94;;;38.95;22.53
6615;BME280;3343;42.896;23.912;2022-08-05T11:04:05;96447.56;;;38.84;22.54
6615;BME280;3343;42.896;23.912;2022-08-05T11:06:34;96443.91;;;38.01;22.48
6615;BME280;3343;42.896;23.912;2022-08-05T11:09:17;96450.59;;;38.49;22.81
6615;BME280;3343;42.896;23.912;2022-08-05T11:11:45;96441.34;;;38.61;21.65
6615;BME280;3343;42.896;23.912;2022-08-05T11:14:22;96430.53;;;39.35;21.11
6615;BME280;3343;42.896;23.912;2022-08-05T11:19:50;96453.50;;;38.33;22.32
6615;BME280;3343;42.896;23.912;2022-08-05T11:22:39;96425.94;;;37.22;23.23
6615;BME280;3343;42.896;23.912;2022-08-05T11:25:29;96446.47;;;37.90;22.92
6615;BME280;3343;42.896;23.912;2022-08-05T11:27:56;96447.59;;;37.66;22.96
6615;BME280;3343;42.896;23.912;2022-08-05T11:30:24;96434.19;;;38.07;22.22
6615;BME280;3343;42.896;23.912;2022-08-05T11:33:25;96434.63;;;38.09;22.45
6615;BME280;3343;42.896;23.912;2022-08-05T11:35:52;96433.03;;;37.85;22.67
6615;BME280;3343;42.896;23.912;2022-08-05T11:38:50;96427.16;;;38.59;23.06
6615;BME280;3343;42.896;23.912;2022-08-05T11:41:20;96436.50;;;39.40;21.82
6615;BME280;3343;42.896;23.912;2022-08-05T11:43:55;96441.88;;;40.55;21.09
6615;BME280;3343;42.896;23.912;2022-08-05T11:46:27;96429.22;;;40.47;19.96
6615;BME280;3343;42.896;23.912;2022-08-05T11:48:55;96424.22;;;40.12;20.41
6615;BME280;3343;42.896;23.912;2022-08-05T11:51:24;96434.69;;;38.92;21.23
6615;BME280;3343;42.896;23.912;2022-08-05T11:53:52;96428.47;;;38.98;21.05
6615;BME280;3343;42.896;23.912;2022-08-05T11:56:19;96405.06;;;39.08;20.94
6615;BME280;3343;42.896;23.912;2022-08-05T11:58:48;96417.41;;;39.95;20.95
6615;BME280;3343;42.896;23.912;2022-08-05T12:01:17;96426.56;;;40.61;20.03
6615;BME280;3343;42.896;23.912;2022-08-05T12:03:47;96419.28;;;40.97;19.61
6615;BME280;3343;42.896;23.912;2022-08-05T12:06:18;96430.88;;;41.35;19.21
6615;BME280;3343;42.896;23.912;2022-08-05T12:08:47;96424.19;;;41.50;19.11
6615;BME280;3343;42.896;23.912;2022-08-05T12:11:17;96414.97;;;41.00;19.44
6615;BME280;3343;42.896;23.912;2022-08-05T12:13:54;96410.38;;;41.50;19.35
6615;BME280;3343;42.896;23.912;2022-08-05T12:16:23;96415.22;;;42.32;19.15
6615;BME280;3343;42.896;23.912;2022-08-05T12:18:52;96413.25;;;42.50;18.57
6615;BME280;3343;42.896;23.912;2022-08-05T12:21:23;96410.06;;;42.34;18.43
6615;BME280;3343;42.896;23.912;2022-08-05T12:23:52;96406.53;;;42.08;19.10
6615;BME280;3343;42.896;23.912;2022-08-05T12:26:20;96405.75;;;42.04;18.69
6615;BME280;3343;42.896;23.912;2022-08-05T12:28:46;96414.03;;;41.86;18.51
6615;BME280;3343;42.896;23.912;2022-08-05T12:31:14;96400.22;;;41.90;18.85
6615;BME280;3343;42.896;23.912;2022-08-05T12:33:41;96387.19;;;42.05;18.62
6615;BME280;3343;42.896;23.912;2022-08-05T12:36:10;96400.13;;;40.60;19.24
6615;BME280;3343;42.896;23.912;2022-08-05T12:38:38;96395.38;;;39.99;20.04
6615;BME280;3343;42.896;23.912;2022-08-05T12:41:09;96398.19;;;40.06;19.78
6615;BME280;3343;42.896;23.912;2022-08-05T12:43:48;96377.34;;;40.08;20.28
6615;BME280;3343;42.896;23.912;2022-08-05T12:46:23;96393.78;;;40.49;19.27
6615;BME280;3343;42.896;23.912;2022-08-05T12:48:57;96383.91;;;41.35;19.02
6615;BME280;3343;42.896;23.912;2022-08-05T12:51:27;96390.91;;;40.97;18.74
6615;BME280;3343;42.896;23.912;2022-08-05T12:53:59;96381.22;;;40.62;19.58
6615;BME280;3343;42.896;23.912;2022-08-05T12:56:28;96380.22;;;40.92;19.33
6615;BME280;3343;42.896;23.912;2022-08-05T12:59:12;96379.44;;;40.91;19.51
6615;BME280;3343;42.896;23.912;2022-08-05T13:01:40;96378.63;;;40.22;19.76
6615;BME280;3343;42.896;23.912;2022-08-05T13:04:08;96379.25;;;40.01;19.88
6615;BME280;3343;42.896;23.912;2022-08-05T13:06:41;96371.41;;;40.03;19.95
6615;BME280;3343;42.896;23.912;2022-08-05T13:09:10;96369.97;;;40.23;19.47
6615;BME280;3343;42.896;23.912;2022-08-05T13:11:39;96362.25;;;40.47;19.76
6615;BME280;3343;42.896;23.912;2022-08-05T13:14:25;96363.28;;;40.90;19.70
6615;BME280;3343;42.896;23.912;2022-08-05T13:16:54;96364.22;;;41.44;18.93
6615;BME280;3343;42.896;23.912;2022-08-05T13:19:23;96362.69;;;41.75;18.38
6615;BME280;3343;42.896;23.912;2022-08-05T13:21:52;96355.84;;;41.19;19.13
6615;BME280;3343;42.896;23.912;2022-08-05T13:24:20;96353.50;;;39.42;20.74
6615;BME280;3343;42.896;23.912;2022-08-05T13:26:49;96342.97;;;38.80;20.61